Time;durP1;ratioP1;P1;durP2;ratioP2;P2;SDS_P1;SDS_P2;PMS_P1;PMS_P2;Temp;Humidity;BMP_temperature;BMP_pressure;BME280_temperature;BME280_humidity;BME280_pressure;Samples;Min_cycle;Max_cycle;Signal;HPM_P1;HPM_P2
2021/12/13 00:00:30;;;;;;;1.40;1.30;;;;;;;5.35;80.51;96536.25;4974041;28;20220;-83
2021/12/13 00:03:09;;;;;;;2.30;1.50;;;;;;;5.45;79.74;96532.00;4975494;28;20200;-82
2021/12/13 00:05:38;;;;;;;1.57;1.40;;;;;;;5.49;80.19;96538.50;4975086;28;20230;-83
2021/12/13 00:08:08;;;;;;;1.50;1.40;;;;;;;5.54;79.88;96539.78;4975403;28;20223;-83
2021/12/13 00:10:39;;;;;;;1.50;1.40;;;;;;;5.54;80.03;96546.63;4975199;28;20204;-83
2021/12/13 00:13:13;;;;;;;1.77;1.40;;;;;;;5.51;81.29;96546.88;4975502;28;20207;-82
2021/12/13 00:15:48;;;;;;;1.60;1.50;;;;;;;5.48;81.24;96542.00;4974270;28;20587;-83
2021/12/13 00:18:24;;;;;;;1.67;1.57;;;;;;;5.52;81.24;96544.19;4976549;28;20594;-83
2021/12/13 00:20:55;;;;;;;1.70;1.60;;;;;;;5.55;80.61;96543.13;4975453;28;20608;-82
2021/12/13 00:23:26;;;;;;;1.43;1.33;;;;;;;5.55;80.75;96536.28;4975421;28;20287;-83
2021/12/13 00:25:55;;;;;;;1.50;1.40;;;;;;;5.55;81.51;96540.59;4974386;28;20232;-82
2021/12/13 00:28:24;;;;;;;2.10;1.60;;;;;;;5.47;82.19;96541.19;4976502;28;20224;-83
2021/12/13 00:31:02;;;;;;;1.60;1.50;;;;;;;5.36;82.92;96536.13;4975851;28;20200;-83
2021/12/13 00:33:38;;;;;;;2.00;1.53;;;;;;;5.36;83.51;96537.88;4976876;28;20232;-83
2021/12/13 00:36:13;;;;;;;1.47;1.33;;;;;;;5.46;83.29;96538.75;4975454;28;20228;-83
2021/12/13 00:38:45;;;;;;;2.60;1.40;;;;;;;5.44;83.89;96540.59;4976024;28;20212;-83
2021/12/13 00:41:14;;;;;;;1.50;1.40;;;;;;;5.46;83.23;96542.13;4975325;28;20224;-83
2021/12/13 00:43:47;;;;;;;1.80;1.17;;;;;;;5.50;83.64;96540.94;4975228;28;20200;-83
2021/12/13 00:46:16;;;;;;;1.63;1.47;;;;;;;5.53;84.19;96545.81;4975699;28;20255;-83
2021/12/13 00:48:50;;;;;;;1.83;1.20;;;;;;;5.58;84.09;96542.09;4975571;28;20196;-83
2021/12/13 00:51:21;;;;;;;4.80;1.33;;;;;;;5.58;84.33;96547.19;4975653;28;20583;-83
2021/12/13 00:53:52;;;;;;;1.40;1.20;;;;;;;5.63;84.11;96547.63;4972484;28;20211;-83
2021/12/13 00:56:47;;;;;;;1.97;1.40;;;;;;;5.57;85.17;96548.13;4973184;28;20232;-82
2021/12/13 00:59:19;;;;;;;1.30;1.20;;;;;;;5.65;84.16;96549.13;4969849;28;20207;-83
2021/12/13 01:01:51;;;;;;;1.30;1.20;;;;;;;5.65;84.48;96550.88;4955312;28;20259;-82
2021/12/13 01:04:19;;;;;;;1.90;1.23;;;;;;;5.70;84.38;96541.91;4973850;28;20208;-82
2021/12/13 01:07:19;;;;;;;1.60;1.30;;;;;;;5.66;84.66;96550.75;4973758;28;20257;-83
2021/12/13 01:11:01;;;;;;;1.63;1.20;;;;;;;5.69;85.32;96555.63;4974811;28;20243;-83
2021/12/13 01:13:33;;;;;;;1.77;1.00;;;;;;;5.74;84.23;96558.63;4975255;28;20204;-83
2021/12/13 01:16:11;;;;;;;2.33;1.40;;;;;;;5.76;84.33;96561.88;4974056;28;20251;-83
2021/12/13 01:19:01;;;;;;;3.27;1.30;;;;;;;5.74;85.54;96571.41;4974698;28;20232;-83
2021/12/13 01:21:39;;;;;;;2.43;1.40;;;;;;;5.66;85.73;96555.03;4974359;28;20220;-83
2021/12/13 01:24:12;;;;;;;1.10;1.00;;;;;;;5.65;85.38;96571.31;4975799;28;20647;-83
2021/12/13 01:26:46;;;;;;;1.57;1.20;;;;;;;5.63;86.78;96568.88;4975344;28;20286;-83
2021/12/13 01:29:16;;;;;;;3.20;1.53;;;;;;;5.64;86.32;96573.06;4976261;28;20226;-83
2021/12/13 01:31:46;;;;;;;1.20;1.10;;;;;;;5.59;87.42;96571.78;4975287;28;20192;-83
2021/12/13 01:34:13;;;;;;;1.40;1.10;;;;;;;5.61;87.31;96573.28;4976181;28;20236;-83
2021/12/13 01:36:47;;;;;;;1.20;1.10;;;;;;;5.59;88.10;96575.16;4974757;28;20224;-83
2021/12/13 01:39:16;;;;;;;1.50;1.40;;;;;;;5.57;88.07;96581.34;4958188;28;20660;-83
2021/12/13 01:41:48;;;;;;;1.47;1.30;;;;;;;5.65;87.27;96582.34;4976189;28;20235;-83
2021/12/13 01:44:20;;;;;;;1.30;1.20;;;;;;;5.65;88.25;96578.97;4975130;28;20204;-82
2021/12/13 01:46:50;;;;;;;1.60;1.20;;;;;;;5.58;88.83;96583.75;4975385;28;20236;-83
2021/12/13 01:49:19;;;;;;;2.10;1.30;;;;;;;5.61;88.77;96582.69;4975908;28;20207;-83
2021/12/13 01:51:46;;;;;;;1.90;1.40;;;;;;;5.63;89.52;96583.38;4976283;28;20200;-83
2021/12/13 01:54:15;;;;;;;1.60;1.30;;;;;;;5.67;89.34;96582.22;4971034;28;20255;-83
2021/12/13 01:56:53;;;;;;;1.40;1.30;;;;;;;5.65;89.74;96589.19;4974998;28;20239;-82
2021/12/13 01:59:42;;;;;;;1.40;1.30;;;;;;;5.64;88.62;96582.47;4971489;28;20205;-83
2021/12/13 02:02:15;;;;;;;1.30;1.20;;;;;;;5.59;90.55;96580.25;4975191;28;20228;-83
2021/12/13 02:04:43;;;;;;;1.53;1.40;;;;;;;5.62;90.42;96585.13;4974652;28;20222;-82
2021/12/13 02:07:11;;;;;;;1.37;1.27;;;;;;;5.63;90.25;96581.66;4974410;28;20227;-83
2021/12/13 02:09:40;;;;;;;1.77;1.30;;;;;;;5.64;89.90;96574.78;4974624;28;20196;-83
2021/12/13 02:12:15;;;;;;;1.73;1.40;;;;;;;5.62;90.59;96574.91;4974959;28;20232;-83
2021/12/13 02:14:47;;;;;;;2.70;1.40;;;;;;;5.62;90.49;96574.91;4973359;28;20203;-83
2021/12/13 02:17:17;;;;;;;1.50;1.40;;;;;;;5.61;90.87;96572.47;4974958;28;20230;-82
2021/12/13 02:19:50;;;;;;;1.77;1.40;;;;;;;5.60;90.97;96575.97;4974936;28;20200;-83
2021/12/13 02:22:33;;;;;;;1.50;1.40;;;;;;;5.56;91.85;96567.75;4974719;28;20220;-83
2021/12/13 02:25:04;;;;;;;1.73;1.30;;;;;;;5.57;91.47;96578.78;4973527;28;20278;-83
2021/12/13 02:27:33;;;;;;;2.43;1.60;;;;;;;5.50;92.67;96576.69;4975130;28;20239;-83
2021/12/13 02:30:06;;;;;;;2.40;1.50;;;;;;;5.49;92.82;96569.16;4974841;28;20203;-83
2021/12/13 02:32:35;;;;;;;1.57;1.40;;;;;;;5.55;91.51;96579.72;4975027;28;20207;-83
2021/12/13 02:35:04;;;;;;;2.20;1.50;;;;;;;5.55;91.54;96577.16;4974332;28;20232;-83
2021/12/13 02:37:33;;;;;;;2.83;1.50;;;;;;;5.59;91.97;96582.81;4974763;28;20231;-83
2021/12/13 02:40:03;;;;;;;1.70;1.60;;;;;;;5.59;92.27;96582.00;4974622;28;20509;-83
2021/12/13 02:42:31;;;;;;;1.63;1.53;;;;;;;5.60;92.35;96578.50;4973197;28;20220;-83
2021/12/13 02:45:04;;;;;;;1.43;1.30;;;;;;;5.62;92.51;96579.22;4973834;28;20232;-83
2021/12/13 02:47:35;;;;;;;2.77;1.50;;;;;;;5.65;91.95;96577.22;4974049;28;20224;-83
2021/12/13 02:50:03;;;;;;;1.67;1.57;;;;;;;5.65;91.43;96582.34;4974212;28;20200;-83
2021/12/13 02:52:30;;;;;;;1.60;1.50;;;;;;;5.64;92.17;96572.25;4973678;28;20270;-82
2021/12/13 02:55:00;;;;;;;2.13;1.60;;;;;;;5.66;91.93;96586.50;4973139;28;20232;-83
2021/12/13 02:57:31;;;;;;;1.60;1.50;;;;;;;5.61;92.44;96580.94;4974308;28;20239;-83
2021/12/13 03:00:01;;;;;;;1.63;1.53;;;;;;;5.52;93.68;96591.91;4975131;28;20203;-83
2021/12/13 03:02:32;;;;;;;1.90;1.50;;;;;;;5.58;93.24;96582.97;4976679;28;20224;-83
2021/12/13 03:05:01;;;;;;;1.83;1.40;;;;;;;5.57;93.02;96587.25;4974714;28;20860;-82
2021/12/13 03:07:31;;;;;;;2.30;1.67;;;;;;;5.61;92.37;96583.50;4974400;28;20224;-83
2021/12/13 03:10:01;;;;;;;1.50;1.40;;;;;;;5.55;93.19;96587.38;4976835;28;20211;-83
2021/12/13 03:12:29;;;;;;;2.07;1.63;;;;;;;5.54;93.51;96592.59;4976524;28;20200;-83
2021/12/13 03:14:59;;;;;;;1.40;1.30;;;;;;;5.53;93.63;96593.53;4974713;28;20232;-82
2021/12/13 03:17:29;;;;;;;1.50;1.40;;;;;;;5.51;94.12;96590.28;4975200;28;20223;-83
2021/12/13 03:20:15;;;;;;;2.50;1.47;;;;;;;5.52;94.31;96589.34;4975318;28;20196;-83
2021/12/13 03:23:03;;;;;;;1.60;1.50;;;;;;;5.51;93.92;96585.19;4974510;28;20228;-83
2021/12/13 03:25:38;;;;;;;1.40;1.30;;;;;;;5.45;95.33;96593.31;4956941;28;20299;-82
2021/12/13 03:28:20;;;;;;;1.70;1.47;;;;;;;5.50;94.62;96588.66;4960751;28;20224;-83
2021/12/13 03:30:50;;;;;;;1.50;1.40;;;;;;;5.52;94.57;96581.69;4959186;29;20295;-83
2021/12/13 03:33:22;;;;;;;1.37;1.27;;;;;;;5.52;95.07;96582.50;4977333;28;20200;-83
2021/12/13 03:35:53;;;;;;;1.60;1.50;;;;;;;5.52;94.36;96585.06;4978047;28;20227;-83
2021/12/13 03:38:25;;;;;;;1.60;1.50;;;;;;;5.50;95.78;96581.00;4977132;28;20662;-83
2021/12/13 03:40:58;;;;;;;1.50;1.40;;;;;;;5.55;95.21;96581.47;4978426;28;20745;-83
2021/12/13 03:43:30;;;;;;;1.60;1.50;;;;;;;5.52;95.61;96574.84;4978161;28;20207;-83
2021/12/13 03:46:01;;;;;;;1.73;1.50;;;;;;;5.48;96.08;96582.84;4978120;28;20232;-83
2021/12/13 03:48:28;;;;;;;1.60;1.50;;;;;;;5.46;96.53;96577.88;4975419;28;20244;-83
2021/12/13 03:50:58;;;;;;;1.37;1.20;;;;;;;5.50;96.30;96581.00;4978477;28;20227;-82
2021/12/13 03:53:27;;;;;;;1.40;1.30;;;;;;;5.46;97.37;96584.72;4977352;28;20204;-83
2021/12/13 03:56:02;;;;;;;1.60;1.50;;;;;;;5.47;97.31;96581.22;4969138;28;20235;-83
2021/12/13 03:58:31;;;;;;;1.70;1.40;;;;;;;5.52;96.39;96582.50;4976649;28;20274;-83
2021/12/13 04:01:00;;;;;;;1.90;1.50;;;;;;;5.47;97.78;96582.03;4977211;28;20255;-83
2021/12/13 04:03:28;;;;;;;1.67;1.57;;;;;;;5.49;97.32;96587.84;4976783;28;20200;-83
2021/12/13 04:05:55;;;;;;;1.53;1.43;;;;;;;5.53;97.17;96596.09;4975929;28;20228;-83
2021/12/13 04:08:23;;;;;;;1.70;1.60;;;;;;;5.55;97.58;96589.94;4976657;28;20232;-83
2021/12/13 04:10:53;;;;;;;1.77;1.47;;;;;;;5.64;96.21;96590.13;4977310;28;20204;-83
2021/12/13 04:13:27;;;;;;;1.50;1.40;;;;;;;5.64;96.50;96600.34;4976768;28;20196;-83
2021/12/13 04:16:05;;;;;;;1.40;1.30;;;;;;;5.66;96.51;96589.06;4976611;28;20231;-82
2021/12/13 04:19:06;;;;;;;2.43;1.50;;;;;;;5.74;95.54;96598.69;4972617;28;20655;-83
2021/12/13 04:21:38;;;;;;;2.63;1.70;;;;;;;5.74;96.41;96594.41;4977043;28;20222;-83
2021/12/13 04:24:09;;;;;;;1.73;1.23;;;;;;;5.74;96.83;96602.06;4977264;28;20216;-83
2021/12/13 04:26:39;;;;;;;1.50;1.40;;;;;;;5.73;96.70;96604.75;4976601;28;20708;-83
2021/12/13 04:29:13;;;;;;;1.57;1.40;;;;;;;5.70;97.19;96602.41;4977096;28;20207;-83
2021/12/13 04:31:40;;;;;;;2.03;1.30;;;;;;;5.66;97.92;96598.47;4977345;28;20536;-83
2021/12/13 04:34:07;;;;;;;1.40;1.30;;;;;;;5.74;97.31;96601.25;4976909;28;20200;-83
2021/12/13 04:36:37;;;;;;;1.77;1.40;;;;;;;5.76;97.80;96604.50;4974630;28;20228;-82
2021/12/13 04:39:08;;;;;;;1.33;1.23;;;;;;;5.76;98.23;96610.44;4976643;28;20208;-83
2021/12/13 04:41:37;;;;;;;1.50;1.40;;;;;;;5.78;98.20;96603.41;4976463;28;20718;-83
2021/12/13 04:44:08;;;;;;;1.40;1.30;;;;;;;5.80;97.82;96605.84;4976376;28;20207;-83
2021/12/13 04:46:36;;;;;;;1.60;1.40;;;;;;;5.85;97.40;96612.22;4974303;28;20323;-83
2021/12/13 04:49:07;;;;;;;1.83;1.30;;;;;;;5.91;97.15;96616.09;4975873;28;20235;-82
2021/12/13 04:51:41;;;;;;;1.93;1.40;;;;;;;5.94;96.64;96618.41;4975286;28;20207;-83
2021/12/13 04:54:07;;;;;;;1.60;1.50;;;;;;;5.96;96.59;96621.66;4963554;28;20258;-83
2021/12/13 04:56:34;;;;;;;1.40;1.30;;;;;;;5.97;96.54;96618.13;4974086;28;20295;-83
2021/12/13 04:59:03;;;;;;;1.70;1.60;;;;;;;5.99;96.81;96618.00;4974758;28;20710;-83
2021/12/13 05:01:31;;;;;;;1.50;1.40;;;;;;;5.93;97.35;96621.06;4975198;28;20223;-82
2021/12/13 05:04:02;;;;;;;1.70;1.60;;;;;;;5.97;97.01;96619.88;4974227;28;20227;-82
2021/12/13 05:06:32;;;;;;;1.40;1.30;;;;;;;5.94;97.88;96615.03;4968185;28;20224;-82
2021/12/13 05:09:00;;;;;;;1.97;1.50;;;;;;;5.90;98.60;96614.47;4968943;28;20664;-83
2021/12/13 05:11:30;;;;;;;1.67;1.40;;;;;;;5.89;98.48;96620.50;4972106;28;20255;-83
2021/12/13 05:13:58;;;;;;;1.50;1.40;;;;;;;5.91;99.33;96621.19;4974046;28;20247;-83
2021/12/13 05:16:29;;;;;;;1.77;1.50;;;;;;;5.95;98.48;96626.88;4975325;28;20286;-82
2021/12/13 05:18:58;;;;;;;1.50;1.40;;;;;;;6.01;98.03;96627.19;4975336;28;20201;-82
2021/12/13 05:21:28;;;;;;;2.10;1.60;;;;;;;6.04;97.50;96637.16;4975217;28;20251;-83
2021/12/13 05:23:57;;;;;;;1.50;1.40;;;;;;;6.06;97.42;96634.50;4974809;28;20204;-83
2021/12/13 05:26:32;;;;;;;1.50;1.40;;;;;;;6.08;97.67;96635.19;4973661;28;20287;-82
2021/12/13 05:29:00;;;;;;;1.93;1.67;;;;;;;6.05;98.55;96631.13;4986781;28;20207;-83
2021/12/13 05:31:28;;;;;;;2.30;2.00;;;;;;;6.08;97.99;96641.09;4981637;28;20201;-83
2021/12/13 05:34:01;;;;;;;3.13;1.87;;;;;;;6.10;97.89;96638.44;4977799;28;20204;-83
2021/12/13 05:36:32;;;;;;;2.10;1.90;;;;;;;6.10;98.21;96639.25;4975632;28;20228;-83
2021/12/13 05:39:08;;;;;;;3.37;2.03;;;;;;;6.10;98.56;96638.44;4976597;28;20228;-82
2021/12/13 05:41:36;;;;;;;2.97;2.60;;;;;;;6.14;97.54;96648.31;4976441;28;20271;-83
2021/12/13 05:44:06;;;;;;;4.07;3.67;;;;;;;6.18;97.90;96641.16;4976431;28;20200;-83
2021/12/13 05:46:37;;;;;;;2.80;2.50;;;;;;;6.20;97.79;96637.56;4967680;28;20236;-82
2021/12/13 05:49:09;;;;;;;3.73;2.50;;;;;;;6.16;98.29;96635.38;4969689;28;20263;-82
2021/12/13 05:51:39;;;;;;;2.60;2.40;;;;;;;6.16;98.44;96636.19;4976805;28;20200;-82
2021/12/13 05:54:08;;;;;;;3.17;2.50;;;;;;;6.17;98.58;96634.44;4976773;28;20196;-83
2021/12/13 05:56:39;;;;;;;2.90;2.60;;;;;;;6.16;98.70;96638.72;4976392;28;20572;-82
2021/12/13 05:59:17;;;;;;;3.67;2.63;;;;;;;6.15;99.50;96644.81;4977715;28;20208;-82
2021/12/13 06:02:06;;;;;;;3.27;2.80;;;;;;;6.02;100.00;96640.78;4976123;28;20224;-82
2021/12/13 06:04:39;;;;;;;2.57;2.37;;;;;;;5.97;100.00;96642.88;4967567;28;20215;-82
2021/12/13 06:07:17;;;;;;;4.60;2.80;;;;;;;6.04;100.00;96637.16;4975284;28;20232;-82
2021/12/13 06:09:53;;;;;;;5.57;2.60;;;;;;;6.03;100.00;96638.09;4976817;28;20207;-82
2021/12/13 06:12:29;;;;;;;2.50;2.30;;;;;;;5.99;100.00;96634.16;4976785;28;20231;-82
2021/12/13 06:14:57;;;;;;;4.33;3.17;;;;;;;6.02;100.00;96640.78;4975848;28;20692;-82
2021/12/13 06:17:29;;;;;;;3.57;2.63;;;;;;;5.99;100.00;96641.81;4976706;28;20232;-82
2021/12/13 06:20:00;;;;;;;3.27;2.77;;;;;;;5.91;100.00;96633.16;4976814;28;20211;-82
2021/12/13 06:22:30;;;;;;;6.37;2.80;;;;;;;5.86;100.00;96634.31;4978451;28;20638;-82
2021/12/13 06:25:00;;;;;;;3.57;3.00;;;;;;;5.85;100.00;96634.41;4975389;28;20230;-82
2021/12/13 06:27:29;;;;;;;3.33;3.00;;;;;;;5.81;100.00;96633.84;4976550;28;20634;-82
2021/12/13 06:30:05;;;;;;;3.13;2.83;;;;;;;5.94;100.00;96640.59;4976772;28;20204;-83
2021/12/13 06:32:43;;;;;;;4.47;2.90;;;;;;;6.05;100.00;96654.13;4976186;28;20222;-82
2021/12/13 06:35:41;;;;;;;3.00;2.70;;;;;;;6.07;100.00;96649.72;4975044;28;20290;-82
2021/12/13 06:38:35;;;;;;;5.97;2.93;;;;;;;6.14;100.00;96655.16;4975208;28;20817;-82
2021/12/13 06:41:06;;;;;;;2.80;2.50;;;;;;;6.17;100.00;96660.00;4976708;28;20344;-82
2021/12/13 06:43:37;;;;;;;2.80;2.50;;;;;;;6.19;100.00;96664.06;4974891;28;20235;-82
2021/12/13 06:46:08;;;;;;;3.27;2.80;;;;;;;6.15;100.00;96670.38;4974617;28;20239;-82
2021/12/13 06:48:38;;;;;;;3.40;2.70;;;;;;;6.20;100.00;96670.81;4975034;28;20645;-82
2021/12/13 06:51:09;;;;;;;2.93;2.60;;;;;;;6.24;100.00;96671.38;4975197;28;20200;-82
2021/12/13 06:53:36;;;;;;;3.73;2.73;;;;;;;6.26;100.00;96672.06;4975105;28;20199;-82
2021/12/13 06:56:22;;;;;;;3.23;2.93;;;;;;;6.28;100.00;96667.63;4974641;28;20254;-82
2021/12/13 06:58:52;;;;;;;5.40;3.97;;;;;;;6.31;100.00;96674.25;4974694;28;20219;-82
2021/12/13 07:01:18;;;;;;;4.10;3.63;;;;;;;6.32;99.69;96678.44;4974834;28;20663;-82
2021/12/13 07:03:54;;;;;;;3.83;3.23;;;;;;;6.35;99.13;96681.53;4974262;28;20223;-83
2021/12/13 07:06:22;;;;;;;3.90;3.50;;;;;;;6.32;99.78;96678.44;4954688;28;20228;-83
2021/12/13 07:09:05;;;;;;;4.90;3.57;;;;;;;6.31;100.00;96689.59;4956093;28;20208;-82
2021/12/13 07:11:40;;;;;;;4.30;3.20;;;;;;;6.32;100.00;96689.47;4966342;28;20208;-82
2021/12/13 07:14:13;;;;;;;6.60;3.73;;;;;;;6.33;100.00;96687.75;4976605;28;20208;-83
2021/12/13 07:16:43;;;;;;;4.40;3.80;;;;;;;6.33;100.00;96691.09;4974428;28;20231;-82
2021/12/13 07:19:18;;;;;;;5.97;4.43;;;;;;;6.34;100.00;96697.84;4974392;28;20200;-82
2021/12/13 07:21:51;;;;;;;6.30;3.93;;;;;;;6.34;100.00;96699.59;4973900;28;20235;-82
2021/12/13 07:24:26;;;;;;;7.00;4.33;;;;;;;6.35;100.00;96703.78;4969430;28;20641;-82
2021/12/13 07:26:55;;;;;;;7.60;5.00;;;;;;;6.31;100.00;96702.41;4973815;28;20231;-82
2021/12/13 07:29:23;;;;;;;7.10;4.93;;;;;;;6.35;100.00;96708.91;4972889;28;20211;-82
2021/12/13 07:32:04;;;;;;;6.63;5.13;;;;;;;6.39;100.00;96708.50;4974130;28;20196;-82
2021/12/13 07:34:31;;;;;;;6.03;4.80;;;;;;;6.43;100.00;96716.75;4974057;28;20266;-83
2021/12/13 07:37:01;;;;;;;5.93;4.67;;;;;;;6.47;99.84;96716.38;4974899;28;20224;-82
2021/12/13 07:39:32;;;;;;;11.03;5.73;;;;;;;6.47;100.00;96716.38;4974685;28;20204;-82
2021/12/13 07:42:00;;;;;;;6.20;5.17;;;;;;;6.46;100.00;96716.50;4975069;28;20230;-82
2021/12/13 07:44:38;;;;;;;6.33;5.53;;;;;;;6.46;100.00;96719.06;4976300;28;20208;-82
2021/12/13 07:47:07;;;;;;;6.80;5.40;;;;;;;6.48;100.00;96722.31;4977361;28;20334;-82
2021/12/13 07:49:37;;;;;;;8.27;5.47;;;;;;;6.46;100.00;96719.06;4977072;28;20219;-83
2021/12/13 07:52:06;;;;;;;6.03;5.10;;;;;;;6.49;100.00;96723.94;4974698;28;20208;-82
2021/12/13 07:54:39;;;;;;;7.53;5.17;;;;;;;6.52;100.00;96718.59;4974016;28;20205;-82
2021/12/13 07:57:18;;;;;;;7.20;4.80;;;;;;;6.49;100.00;96724.75;4975296;28;20224;-82
2021/12/13 07:59:44;;;;;;;5.77;4.77;;;;;;;6.55;100.00;96726.81;4974048;28;20283;-82
2021/12/13 08:02:19;;;;;;;7.53;4.97;;;;;;;6.54;100.00;96732.84;4974239;28;20219;-82
2021/12/13 08:04:50;;;;;;;5.90;4.53;;;;;;;6.56;100.00;96733.53;4970456;28;20211;-82
2021/12/13 08:07:20;;;;;;;6.33;4.90;;;;;;;6.52;100.00;96731.38;4967300;28;20236;-82
2021/12/13 08:09:51;;;;;;;5.70;4.33;;;;;;;6.50;100.00;96728.94;4990587;28;20204;-82
2021/12/13 08:12:21;;;;;;;4.97;4.47;;;;;;;6.49;100.00;96722.19;4985799;28;20691;-83
2021/12/13 08:14:52;;;;;;;9.60;6.10;;;;;;;6.54;100.00;96726.94;4979656;28;20219;-82
2021/12/13 08:17:20;;;;;;;4.67;4.17;;;;;;;6.48;100.00;96730.81;4980639;28;20223;-82
2021/12/13 08:19:55;;;;;;;4.17;3.77;;;;;;;6.55;100.00;96731.09;4980260;28;20223;-82
2021/12/13 08:22:28;;;;;;;5.20;4.20;;;;;;;6.61;100.00;96729.81;4979561;28;20223;-82
2021/12/13 08:24:57;;;;;;;4.60;4.20;;;;;;;6.55;100.00;96736.22;4979671;28;20232;-83
2021/12/13 08:27:26;;;;;;;4.47;4.07;;;;;;;6.53;100.00;96730.44;4979757;28;20282;-82
2021/12/13 08:30:08;;;;;;;5.80;4.13;;;;;;;6.51;100.00;96733.13;4980377;28;20214;-82
2021/12/13 08:32:35;;;;;;;4.80;4.13;;;;;;;6.54;100.00;96735.41;4980348;28;20210;-82
2021/12/13 08:35:06;;;;;;;6.67;4.17;;;;;;;6.60;100.00;96739.22;4978845;28;20258;-82
2021/12/13 08:37:38;;;;;;;4.47;3.80;;;;;;;6.65;100.00;96741.44;4979297;28;20220;-82
2021/12/13 08:40:09;;;;;;;4.80;3.70;;;;;;;6.70;100.00;96747.00;4979153;28;20192;-82
2021/12/13 08:42:39;;;;;;;4.77;3.90;;;;;;;6.69;100.00;96745.38;4979491;28;20231;-82
2021/12/13 08:45:16;;;;;;;4.40;3.90;;;;;;;6.71;100.00;96741.75;4978080;28;20235;-82
2021/12/13 08:47:46;;;;;;;4.47;3.90;;;;;;;6.72;100.00;96747.69;4979008;28;20224;-82
2021/12/13 08:50:18;;;;;;;5.10;3.70;;;;;;;6.71;100.00;96746.88;4979775;28;20668;-82
2021/12/13 08:52:48;;;;;;;4.30;3.90;;;;;;;6.75;100.00;96750.78;4977839;28;20680;-82
2021/12/13 08:55:21;;;;;;;4.37;3.50;;;;;;;6.78;100.00;96754.84;4977055;28;20240;-82
2021/12/13 08:57:53;;;;;;;5.37;4.47;;;;;;;6.79;100.00;96762.41;4978337;28;20631;-82
2021/12/13 09:00:47;;;;;;;5.43;4.27;;;;;;;6.85;100.00;96763.66;4978309;28;20207;-82
2021/12/13 09:03:39;;;;;;;7.37;5.10;;;;;;;6.89;100.00;96757.38;4979844;28;20228;-82
2021/12/13 09:06:12;;;;;;;5.50;4.33;;;;;;;6.92;100.00;96759.69;4960032;28;20586;-82
2021/12/13 09:08:43;;;;;;;5.73;4.10;;;;;;;6.93;100.00;96762.09;4978201;28;20640;-82
2021/12/13 09:11:20;;;;;;;5.00;4.07;;;;;;;6.97;100.00;96760.09;4979883;28;20208;-82
2021/12/13 09:13:50;;;;;;;4.57;3.73;;;;;;;7.00;100.00;96759.84;4979789;28;20250;-83
2021/12/13 09:16:20;;;;;;;4.20;3.67;;;;;;;7.00;100.00;96756.47;4978976;28;20907;-82
2021/12/13 09:18:47;;;;;;;5.17;4.37;;;;;;;7.06;99.96;96758.53;4979759;28;20219;-83
2021/12/13 09:21:19;;;;;;;4.43;3.63;;;;;;;7.03;100.00;96759.59;4979938;28;20216;-83
2021/12/13 09:23:50;;;;;;;3.67;3.37;;;;;;;7.02;100.00;96760.53;4978978;28;20216;-82
2021/12/13 09:26:20;;;;;;;5.53;3.50;;;;;;;6.98;100.00;96761.72;4979086;28;20228;-82
2021/12/13 09:28:49;;;;;;;5.00;3.47;;;;;;;6.94;100.00;96761.16;4979113;28;20965;-83
2021/12/13 09:31:20;;;;;;;4.13;3.37;;;;;;;6.97;100.00;96761.84;4979281;28;20200;-82
2021/12/13 09:33:50;;;;;;;5.30;3.13;;;;;;;7.04;100.00;96765.53;4978558;28;20200;-82
2021/12/13 09:36:19;;;;;;;4.13;3.77;;;;;;;7.07;100.00;96760.97;4977936;28;20739;-82
2021/12/13 09:38:53;;;;;;;4.60;3.33;;;;;;;7.05;100.00;96760.28;4978474;28;20234;-82
2021/12/13 09:41:28;;;;;;;5.23;3.53;;;;;;;7.01;100.00;96758.09;4978510;28;20210;-83
2021/12/13 09:44:01;;;;;;;9.60;4.53;;;;;;;6.98;100.00;96754.03;4978972;28;20231;-83
2021/12/13 09:46:35;;;;;;;5.03;4.13;;;;;;;7.03;100.00;96757.03;4977956;28;20259;-82
2021/12/13 09:49:06;;;;;;;5.60;4.30;;;;;;;7.00;100.00;96753.91;4977920;28;20212;-82
2021/12/13 09:51:38;;;;;;;4.87;4.13;;;;;;;7.10;100.00;96759.91;4978945;28;20209;-82
2021/12/13 09:54:08;;;;;;;8.07;4.23;;;;;;;7.12;100.00;96756.28;4978485;28;20377;-82
2021/12/13 09:56:38;;;;;;;4.57;3.77;;;;;;;7.17;100.00;96756.72;4978263;28;20261;-82
2021/12/13 09:59:15;;;;;;;4.77;4.23;;;;;;;7.27;100.00;96749.09;4978073;28;20211;-82
2021/12/13 10:01:43;;;;;;;6.47;4.27;;;;;;;7.35;100.00;96741.56;4977845;28;20208;-82
2021/12/13 10:04:14;;;;;;;5.20;4.70;;;;;;;7.38;100.00;96748.19;4973187;28;20696;-82
2021/12/13 10:06:46;;;;;;;4.10;3.70;;;;;;;7.41;99.72;96740.25;4958073;28;20251;-82
2021/12/13 10:09:19;;;;;;;5.87;3.70;;;;;;;7.44;99.34;96740.00;4968502;28;20694;-82
2021/12/13 10:11:49;;;;;;;4.77;3.97;;;;;;;7.44;99.65;96738.25;4977914;28;20204;-82
2021/12/13 10:14:18;;;;;;;4.07;3.67;;;;;;;7.44;99.20;96733.13;4977604;28;20215;-82
2021/12/13 10:16:48;;;;;;;4.70;3.77;;;;;;;7.42;99.75;96734.19;4977098;28;20291;-82
2021/12/13 10:19:18;;;;;;;4.50;3.73;;;;;;;7.44;99.07;96729.75;4976383;28;20204;-82
2021/12/13 10:21:48;;;;;;;4.40;4.00;;;;;;;7.48;99.33;96724.25;4976496;28;20203;-82
2021/12/13 10:24:21;;;;;;;5.50;4.47;;;;;;;7.49;99.02;96725.88;4975433;28;20227;-82
2021/12/13 10:26:51;;;;;;;5.97;4.67;;;;;;;7.56;98.25;96726.16;4976076;28;20714;-83
2021/12/13 10:29:19;;;;;;;7.23;4.40;;;;;;;7.51;98.61;96720.59;4976595;28;20706;-82
2021/12/13 10:31:51;;;;;;;6.13;4.60;;;;;;;7.50;98.78;96719.81;4976832;28;20576;-82
2021/12/13 10:34:20;;;;;;;5.13;4.63;;;;;;;7.52;98.44;96723.03;4976609;28;20204;-82
2021/12/13 10:36:50;;;;;;;4.80;4.40;;;;;;;7.56;98.21;96719.28;4976425;28;20251;-82
2021/12/13 10:39:21;;;;;;;4.60;4.20;;;;;;;7.57;98.01;96720.91;4976599;28;20200;-82
2021/12/13 10:41:53;;;;;;;5.43;4.23;;;;;;;7.51;98.64;96718.84;4977246;28;20215;-83
2021/12/13 10:44:28;;;;;;;4.83;4.33;;;;;;;7.53;98.73;96716.16;4976947;28;20223;-82
2021/12/13 10:46:58;;;;;;;4.97;4.50;;;;;;;7.53;99.07;96709.28;4983492;28;20333;-82
2021/12/13 10:49:27;;;;;;;5.23;4.73;;;;;;;7.57;98.60;96714.97;4989551;28;20204;-82
2021/12/13 10:51:57;;;;;;;4.87;4.47;;;;;;;7.53;98.82;96714.41;4978905;28;20235;-82
2021/12/13 10:54:30;;;;;;;5.03;4.33;;;;;;;7.57;98.34;96714.97;4979504;28;20204;-82
2021/12/13 10:56:59;;;;;;;5.63;5.13;;;;;;;7.59;98.09;96706.19;4977488;28;20236;-82
2021/12/13 10:59:28;;;;;;;8.90;7.47;;;;;;;7.62;98.84;96715.38;4977152;28;20199;-82
2021/12/13 11:01:58;;;;;;;9.37;6.83;;;;;;;7.55;100.00;96707.38;4976358;28;20207;-82
2021/12/13 11:04:28;;;;;;;7.77;6.37;;;;;;;7.57;100.00;96709.81;4969678;28;20260;-83
2021/12/13 11:06:55;;;;;;;7.37;5.43;;;;;;;7.56;100.00;96709.00;4957542;28;20237;-82
2021/12/13 11:09:25;;;;;;;7.57;5.20;;;;;;;7.59;100.00;96706.19;4963509;28;20316;-83
2021/12/13 11:11:57;;;;;;;6.17;5.37;;;;;;;7.60;100.00;96712.94;4976028;28;20203;-83
2021/12/13 11:14:26;;;;;;;8.00;5.20;;;;;;;7.67;100.00;96702.19;4976185;28;20243;-82
2021/12/13 11:16:55;;;;;;;6.50;4.93;;;;;;;7.71;99.80;96701.78;4975481;28;20282;-82
2021/12/13 11:19:24;;;;;;;7.47;5.67;;;;;;;7.73;98.98;96706.75;4973982;28;20288;-82
2021/12/13 11:21:53;;;;;;;6.57;5.37;;;;;;;7.75;98.87;96707.44;4976139;28;20204;-83
2021/12/13 11:24:23;;;;;;;5.93;5.33;;;;;;;7.76;98.90;96696.25;4975059;28;20270;-82
2021/12/13 11:26:54;;;;;;;8.47;5.83;;;;;;;7.64;100.00;96700.69;4974075;28;20232;-83
2021/12/13 11:29:22;;;;;;;6.37;5.77;;;;;;;7.55;100.00;96696.31;4975118;28;20215;-82
2021/12/13 11:32:30;;;;;;;6.90;5.60;;;;;;;7.60;100.00;96692.44;4975658;28;20204;-83
2021/12/13 11:35:33;;;;;;;6.07;5.47;;;;;;;7.70;99.65;96689.13;4954693;28;20572;-82
2021/12/13 11:38:26;;;;;;;6.50;5.20;;;;;;;7.76;98.99;96684.25;4974894;28;20232;-83
2021/12/13 11:41:18;;;;;;;6.67;5.20;;;;;;;7.73;99.53;96681.94;4975048;28;20204;-82
2021/12/13 11:44:03;;;;;;;6.10;5.50;;;;;;;7.74;99.47;96678.44;4974814;28;20228;-83
2021/12/13 11:46:51;;;;;;;5.63;5.00;;;;;;;7.78;99.88;96674.69;4976901;28;20243;-82
2021/12/13 11:49:49;;;;;;;5.30;4.80;;;;;;;7.82;99.79;96675.22;4978852;28;20207;-82
2021/12/13 11:52:43;;;;;;;5.87;5.27;;;;;;;7.80;100.00;96677.91;4957790;28;20211;-83
2021/12/13 11:55:36;;;;;;;6.67;6.07;;;;;;;7.78;100.00;96679.00;4978782;28;20228;-83
2021/12/13 11:58:37;;;;;;;7.30;5.67;;;;;;;7.80;100.00;96669.41;4959439;28;20228;-83
2021/12/13 12:01:47;;;;;;;7.10;6.23;;;;;;;7.81;100.00;96671.03;4960049;28;20209;-82
2021/12/13 12:05:07;;;;;;;7.03;5.63;;;;;;;7.85;100.00;96659.59;4964113;28;20258;-83
2021/12/13 12:08:07;;;;;;;9.00;5.80;;;;;;;7.83;100.00;96652.03;4901208;29;20242;-83